sensor_id;sensor_type;location;lat;lon;timestamp;temperature;humidity
53520;DHT22;39397;53.204;5.778;2022-11-15T00:00:52;8.20;99.90
53520;DHT22;39397;53.204;5.778;2022-11-15T00:03:20;9.40;99.90
53520;DHT22;39397;53.204;5.778;2022-11-15T00:05:49;8.10;99.90
53520;DHT22;39397;53.204;5.778;2022-11-15T00:08:15;8.20;99.90
53520;DHT22;39397;53.204;5.778;2022-11-15T00:10:41;9.90;99.90
53520;DHT22;39397;53.204;5.778;2022-11-15T00:13:11;8.10;99.90
53520;DHT22;39397;53.204;5.778;2022-11-15T00:15:38;8.20;99.90
53520;DHT22;39397;53.204;5.778;2022-11-15T00:18:05;8.20;99.90
53520;DHT22;39397;53.204;5.778;2022-11-15T00:20:33;8.10;99.90
53520;DHT22;39397;53.204;5.778;2022-11-15T00:22:59;9.40;99.90
53520;DHT22;39397;53.204;5.778;2022-11-15T00:25:26;8.30;99.90
53520;DHT22;39397;53.204;5.778;2022-11-15T00:27:56;9.50;99.90
53520;DHT22;39397;53.204;5.778;2022-11-15T00:30:22;8.10;99.90
53520;DHT22;39397;53.204;5.778;2022-11-15T00:32:49;9.20;99.90
53520;DHT22;39397;53.204;5.778;2022-11-15T00:35:17;8.30;99.90
53520;DHT22;39397;53.204;5.778;2022-11-15T00:37:43;8.50;99.90
53520;DHT22;39397;53.204;5.778;2022-11-15T00:40:12;8.20;99.90
53520;DHT22;39397;53.204;5.778;2022-11-15T00:42:40;8.30;99.90
53520;DHT22;39397;53.204;5.778;2022-11-15T00:45:12;10.10;99.90
53520;DHT22;39397;53.204;5.778;2022-11-15T00:47:38;8.20;99.90
53520;DHT22;39397;53.204;5.778;2022-11-15T00:50:04;9.80;99.90
53520;DHT22;39397;53.204;5.778;2022-11-15T00:52:30;8.20;99.90
53520;DHT22;39397;53.204;5.778;2022-11-15T00:54:56;8.20;99.90
53520;DHT22;39397;53.204;5.778;2022-11-15T00:57:22;8.30;99.90
53520;DHT22;39397;53.204;5.778;2022-11-15T00:59:48;8.20;99.90
53520;DHT22;39397;53.204;5.778;2022-11-15T01:02:14;9.80;99.90
53520;DHT22;39397;53.204;5.778;2022-11-15T01:04:39;8.10;99.90
53520;DHT22;39397;53.204;5.778;2022-11-15T01:07:05;8.00;99.90
53520;DHT22;39397;53.204;5.778;2022-11-15T01:09:31;8.00;99.90
53520;DHT22;39397;53.204;5.778;2022-11-15T01:11:57;8.00;99.90
53520;DHT22;39397;53.204;5.778;2022-11-15T01:14:22;9.90;99.90
53520;DHT22;39397;53.204;5.778;2022-11-15T01:16:48;8.00;99.90
53520;DHT22;39397;53.204;5.778;2022-11-15T01:19:14;9.90;99.90
53520;DHT22;39397;53.204;5.778;2022-11-15T01:21:39;9.80;99.90
53520;DHT22;39397;53.204;5.778;2022-11-15T01:24:05;8.20;99.90
53520;DHT22;39397;53.204;5.778;2022-11-15T01:26:31;7.80;99.90
53520;DHT22;39397;53.204;5.778;2022-11-15T01:28:57;9.30;99.90
53520;DHT22;39397;53.204;5.778;2022-11-15T01:31:22;7.80;99.90
53520;DHT22;39397;53.204;5.778;2022-11-15T01:33:48;8.90;99.90
53520;DHT22;39397;53.204;5.778;2022-11-15T01:36:19;10.10;99.90
53520;DHT22;39397;53.204;5.778;2022-11-15T01:38:47;7.90;99.90
53520;DHT22;39397;53.204;5.778;2022-11-15T01:41:21;8.50;99.90
53520;DHT22;39397;53.204;5.778;2022-11-15T01:43:51;7.90;99.90
53520;DHT22;39397;53.204;5.778;2022-11-15T01:46:35;7.70;99.90
53520;DHT22;39397;53.204;5.778;2022-11-15T01:49:05;7.90;99.90
53520;DHT22;39397;53.204;5.778;2022-11-15T01:51:35;9.70;99.90
53520;DHT22;39397;53.204;5.778;2022-11-15T01:54:09;9.10;99.90
53520;DHT22;39397;53.204;5.778;2022-11-15T01:56:43;8.60;99.90
53520;DHT22;39397;53.204;5.778;2022-11-15T01:59:11;8.30;99.90
53520;DHT22;39397;53.204;5.778;2022-11-15T02:01:37;7.60;99.90
53520;DHT22;39397;53.204;5.778;2022-11-15T02:04:32;7.40;99.90
53520;DHT22;39397;53.204;5.778;2022-11-15T02:06:59;7.40;99.90
53520;DHT22;39397;53.204;5.778;2022-11-15T02:09:25;8.20;99.90
53520;DHT22;39397;53.204;5.778;2022-11-15T02:11:51;7.40;99.90
53520;DHT22;39397;53.204;5.778;2022-11-15T02:14:20;8.40;99.90
53520;DHT22;39397;53.204;5.778;2022-11-15T02:17:08;8.90;99.90
53520;DHT22;39397;53.204;5.778;2022-11-15T02:19:48;8.30;99.90
53520;DHT22;39397;53.204;5.778;2022-11-15T02:25:57;8.90;99.90
53520;DHT22;39397;53.204;5.778;2022-11-15T02:30:52;7.10;99.90
53520;DHT22;39397;53.204;5.778;2022-11-15T02:36:02;7.00;99.90
53520;DHT22;39397;53.204;5.778;2022-11-15T02:41:15;7.10;99.90
53520;DHT22;39397;53.204;5.778;2022-11-15T02:43:47;7.00;99.90
53520;DHT22;39397;53.204;5.778;2022-11-15T02:49:11;7.00;99.90
53520;DHT22;39397;53.204;5.778;2022-11-15T02:51:37;7.00;99.90
53520;DHT22;39397;53.204;5.778;2022-11-15T02:54:03;8.10;99.90
53520;DHT22;39397;53.204;5.778;2022-11-15T02:56:29;8.10;99.90
53520;DHT22;39397;53.204;5.778;2022-11-15T03:01:51;7.10;99.90
53520;DHT22;39397;53.204;5.778;2022-11-15T03:07:20;7.50;99.90
53520;DHT22;39397;53.204;5.778;2022-11-15T03:12:46;7.20;99.90
53520;DHT22;39397;53.204;5.778;2022-11-15T03:15:30;8.20;99.90
53520;DHT22;39397;53.204;5.778;2022-11-15T03:18:04;7.50;99.90
53520;DHT22;39397;53.204;5.778;2022-11-15T03:20:32;7.50;99.90
53520;DHT22;39397;53.204;5.778;2022-11-15T03:23:11;7.40;99.90
53520;DHT22;39397;53.204;5.778;2022-11-15T03:25:48;7.60;99.90
53520;DHT22;39397;53.204;5.778;2022-11-15T03:28:23;7.40;99.90
53520;DHT22;39397;53.204;5.778;2022-11-15T03:30:51;8.80;99.90
53520;DHT22;39397;53.204;5.778;2022-11-15T03:33:19;7.10;99.90
53520;DHT22;39397;53.204;5.778;2022-11-15T03:35:47;8.00;99.90
53520;DHT22;39397;53.204;5.778;2022-11-15T03:38:19;8.20;99.90
53520;DHT22;39397;53.204;5.778;2022-11-15T03:40:53;7.20;99.90
53520;DHT22;39397;53.204;5.778;2022-11-15T03:43:44;8.80;99.90
53520;DHT22;39397;53.204;5.778;2022-11-15T03:46:20;8.20;99.90
53520;DHT22;39397;53.204;5.778;2022-11-15T03:48:53;9.20;99.90
53520;DHT22;39397;53.204;5.778;2022-11-15T03:51:20;7.20;99.90
53520;DHT22;39397;53.204;5.778;2022-11-15T03:53:46;7.70;99.90
53520;DHT22;39397;53.204;5.778;2022-11-15T03:56:12;8.60;99.90
53520;DHT22;39397;53.204;5.778;2022-11-15T03:58:37;9.10;99.90
53520;DHT22;39397;53.204;5.778;2022-11-15T04:01:03;8.10;99.90
53520;DHT22;39397;53.204;5.778;2022-11-15T04:03:29;7.30;99.90
53520;DHT22;39397;53.204;5.778;2022-11-15T04:05:55;9.10;99.90
53520;DHT22;39397;53.204;5.778;2022-11-15T04:08:20;7.50;99.90
53520;DHT22;39397;53.204;5.778;2022-11-15T04:10:48;7.40;99.90
53520;DHT22;39397;53.204;5.778;2022-11-15T04:13:14;7.40;99.90
53520;DHT22;39397;53.204;5.778;2022-11-15T04:15:40;7.40;99.90
53520;DHT22;39397;53.204;5.778;2022-11-15T04:18:06;9.30;99.90
53520;DHT22;39397;53.204;5.778;2022-11-15T04:20:32;7.60;99.90
53520;DHT22;39397;53.204;5.778;2022-11-15T04:23:21;7.40;99.90
53520;DHT22;39397;53.204;5.778;2022-11-15T04:26:16;7.60;99.90
53520;DHT22;39397;53.204;5.778;2022-11-15T04:28:42;8.30;99.90
53520;DHT22;39397;53.204;5.778;2022-11-15T04:31:26;8.80;99.90
53520;DHT22;39397;53.204;5.778;2022-11-15T04:33:53;8.50;99.90
53520;DHT22;39397;53.204;5.778;2022-11-15T04:36:19;7.60;99.90
53520;DHT22;39397;53.204;5.778;2022-11-15T04:39:04;9.30;99.90
53520;DHT22;39397;53.204;5.778;2022-11-15T04:41:29;8.20;99.90
53520;DHT22;39397;53.204;5.778;2022-11-15T04:43:55;7.50;99.90
53520;DHT22;39397;53.204;5.778;2022-11-15T04:46:22;8.80;99.90
53520;DHT22;39397;53.204;5.778;2022-11-15T04:48:49;7.70;99.90
53520;DHT22;39397;53.204;5.778;2022-11-15T04:51:15;8.20;99.90
53520;DHT22;39397;53.204;5.778;2022-11-15T04:53:41;9.60;99.90
53520;DHT22;39397;53.204;5.778;2022-11-15T04:56:10;7.80;99.90
53520;DHT22;39397;53.204;5.778;2022-11-15T04:58:35;7.70;99.90
53520;DHT22;39397;53.204;5.778;2022-11-15T05:01:12;9.60;99.90
53520;DHT22;39397;53.204;5.778;2022-11-15T05:03:40;8.10;99.90
53520;DHT22;39397;53.204;5.778;2022-11-15T05:06:25;8.90;99.90
53520;DHT22;39397;53.204;5.778;2022-11-15T05:08:52;8.10;99.90
53520;DHT22;39397;53.204;5.778;2022-11-15T05:11:18;7.80;99.90
53520;DHT22;39397;53.204;5.778;2022-11-15T05:13:43;9.30;99.90
53520;DHT22;39397;53.204;5.778;2022-11-15T05:16:09;9.90;99.90
53520;DHT22;39397;53.204;5.778;2022-11-15T05:18:35;7.90;99.90
53520;DHT22;39397;53.204;5.778;2022-11-15T05:21:08;9.40;99.90
53520;DHT22;39397;53.204;5.778;2022-11-15T05:23:34;8.00;99.90
53520;DHT22;39397;53.204;5.778;2022-11-15T05:26:04;10.30;99.90
53520;DHT22;39397;53.204;5.778;2022-11-15T05:28:31;8.10;99.90
53520;DHT22;39397;53.204;5.778;2022-11-15T05:31:01;8.80;99.90
53520;DHT22;39397;53.204;5.778;2022-11-15T05:33:27;9.30;99.90
53520;DHT22;39397;53.204;5.778;2022-11-15T05:35:58;8.10;99.90
53520;DHT22;39397;53.204;5.778;2022-11-15T05:38:24;8.10;99.90
53520;DHT22;39397;53.204;5.778;2022-11-15T05:40:50;8.20;99.90
53520;DHT22;39397;53.204;5.778;2022-11-15T05:43:16;9.80;99.90
53520;DHT22;39397;53.204;5.778;2022-11-15T05:45:42;9.10;99.90
53520;DHT22;39397;53.204;5.778;2022-11-15T05:48:09;9.00;99.90
53520;DHT22;39397;53.204;5.778;2022-11-15T05:50:37;8.50;99.90
53520;DHT22;39397;53.204;5.778;2022-11-15T05:53:04;9.10;99.90
53520;DHT22;39397;53.204;5.778;2022-11-15T05:55:31;8.80;99.90
53520;DHT22;39397;53.204;5.778;2022-11-15T05:58:00;8.60;99.90
53520;DHT22;39397;53.204;5.778;2022-11-15T06:00:26;8.70;99.90
53520;DHT22;39397;53.204;5.778;2022-11-15T06:02:52;8.60;99.90
53520;DHT22;39397;53.204;5.778;2022-11-15T06:05:18;8.60;99.90
53520;DHT22;39397;53.204;5.778;2022-11-15T06:07:43;8.80;99.90
53520;DHT22;39397;53.204;5.778;2022-11-15T06:10:09;8.70;99.90
53520;DHT22;39397;53.204;5.778;2022-11-15T06:12:35;8.80;99.90
53520;DHT22;39397;53.204;5.778;2022-11-15T06:15:01;10.40;99.90
53520;DHT22;39397;53.204;5.778;2022-11-15T06:17:26;9.50;99.90
53520;DHT22;39397;53.204;5.778;2022-11-15T06:19:52;8.90;99.90
53520;DHT22;39397;53.204;5.778;2022-11-15T06:22:18;9.50;99.90
53520;DHT22;39397;53.204;5.778;2022-11-15T06:24:43;9.40;99.90
53520;DHT22;39397;53.204;5.778;2022-11-15T06:27:11;10.80;99.90
53520;DHT22;39397;53.204;5.778;2022-11-15T06:29:36;9.50;99.90
53520;DHT22;39397;53.204;5.778;2022-11-15T06:32:05;9.00;99.90
53520;DHT22;39397;53.204;5.778;2022-11-15T06:34:30;9.00;99.90
53520;DHT22;39397;53.204;5.778;2022-11-15T06:36:56;9.90;99.90
53520;DHT22;39397;53.204;5.778;2022-11-15T06:39:22;9.20;99.90
53520;DHT22;39397;53.204;5.778;2022-11-15T06:41:47;9.70;99.90
53520;DHT22;39397;53.204;5.778;2022-11-15T06:44:13;9.30;99.90
53520;DHT22;39397;53.204;5.778;2022-11-15T06:46:39;10.60;99.90
53520;DHT22;39397;53.204;5.778;2022-11-15T06:49:04;9.20;99.90
53520;DHT22;39397;53.204;5.778;2022-11-15T06:51:30;10.00;99.90
53520;DHT22;39397;53.204;5.778;2022-11-15T06:53:56;9.50;99.90
53520;DHT22;39397;53.204;5.778;2022-11-15T06:56:21;11.30;99.90
53520;DHT22;39397;53.204;5.778;2022-11-15T06:58:47;11.40;99.90
53520;DHT22;39397;53.204;5.778;2022-11-15T07:01:13;9.40;99.90
53520;DHT22;39397;53.204;5.778;2022-11-15T07:03:41;9.60;99.90
53520;DHT22;39397;53.204;5.778;2022-11-15T07:06:07;9.50;99.90
53520;DHT22;39397;53.204;5.778;2022-11-15T07:08:34;9.50;99.90
53520;DHT22;39397;53.204;5.778;2022-11-15T07:11:02;10.70;99.90
53520;DHT22;39397;53.204;5.778;2022-11-15T07:13:30;9.60;99.90
53520;DHT22;39397;53.204;5.778;2022-11-15T07:16:01;9.60;99.90
53520;DHT22;39397;53.204;5.778;2022-11-15T07:18:27;9.60;99.90
53520;DHT22;39397;53.204;5.778;2022-11-15T07:20:53;11.00;99.90
53520;DHT22;39397;53.204;5.778;2022-11-15T07:23:18;9.90;99.90
53520;DHT22;39397;53.204;5.778;2022-11-15T07:25:44;10.20;99.90
53520;DHT22;39397;53.204;5.778;2022-11-15T07:28:10;9.70;99.90
53520;DHT22;39397;53.204;5.778;2022-11-15T07:30:35;10.60;99.90
53520;DHT22;39397;53.204;5.778;2022-11-15T07:33:01;9.90;99.90
53520;DHT22;39397;53.204;5.778;2022-11-15T07:35:28;10.50;99.90
53520;DHT22;39397;53.204;5.778;2022-11-15T07:38:01;9.90;99.90
53520;DHT22;39397;53.204;5.778;2022-11-15T07:40:29;10.10;99.90
53520;DHT22;39397;53.204;5.778;2022-11-15T07:43:03;10.40;99.90
53520;DHT22;39397;53.204;5.778;2022-11-15T07:45:29;10.00;99.90
53520;DHT22;39397;53.204;5.778;2022-11-15T07:47:55;11.80;99.90
53520;DHT22;39397;53.204;5.778;2022-11-15T07:50:23;10.00;99.90
53520;DHT22;39397;53.204;5.778;2022-11-15T07:52:54;10.10;99.90
53520;DHT22;39397;53.204;5.778;2022-11-15T07:55:21;10.20;99.90
53520;DHT22;39397;53.204;5.778;2022-11-15T07:57:46;10.90;99.90
53520;DHT22;39397;53.204;5.778;2022-11-15T08:00:13;10.30;99.90
53520;DHT22;39397;53.204;5.778;2022-11-15T08:02:39;10.10;99.90
53520;DHT22;39397;53.204;5.778;2022-11-15T08:05:05;10.20;99.90
53520;DHT22;39397;53.204;5.778;2022-11-15T08:07:31;10.20;99.90
53520;DHT22;39397;53.204;5.778;2022-11-15T08:09:57;10.30;99.90
53520;DHT22;39397;53.204;5.778;2022-11-15T08:12:23;10.30;99.90
53520;DHT22;39397;53.204;5.778;2022-11-15T08:14:49;10.50;99.90
53520;DHT22;39397;53.204;5.778;2022-11-15T08:17:15;10.50;99.90
53520;DHT22;39397;53.204;5.778;2022-11-15T08:19:41;10.40;99.90
53520;DHT22;39397;53.204;5.778;2022-11-15T08:22:13;10.50;99.90
53520;DHT22;39397;53.204;5.778;2022-11-15T08:24:39;11.40;99.90
53520;DHT22;39397;53.204;5.778;2022-11-15T08:27:05;10.60;99.90
53520;DHT22;39397;53.204;5.778;2022-11-15T08:29:48;12.50;99.90
53520;DHT22;39397;53.204;5.778;2022-11-15T08:32:14;10.70;99.90
53520;DHT22;39397;53.204;5.778;2022-11-15T08:34:40;11.00;99.90
53520;DHT22;39397;53.204;5.778;2022-11-15T08:37:05;12.80;99.90
53520;DHT22;39397;53.204;5.778;2022-11-15T08:39:31;11.30;99.90
53520;DHT22;39397;53.204;5.778;2022-11-15T08:41:57;10.70;99.90
53520;DHT22;39397;53.204;5.778;2022-11-15T08:44:23;10.80;99.90
53520;DHT22;39397;53.204;5.778;2022-11-15T08:46:49;10.90;99.90
53520;DHT22;39397;53.204;5.778;2022-11-15T08:49:18;12.60;99.90
53520;DHT22;39397;53.204;5.778;2022-11-15T08:51:45;11.00;99.90
53520;DHT22;39397;53.204;5.778;2022-11-15T08:54:10;11.10;99.90
53520;DHT22;39397;53.204;5.778;2022-11-15T08:56:36;11.60;99.90
53520;DHT22;39397;53.204;5.778;2022-11-15T08:59:02;11.10;99.90
53520;DHT22;39397;53.204;5.778;2022-11-15T09:01:27;11.70;99.90
53520;DHT22;39397;53.204;5.778;2022-11-15T09:03:53;11.30;99.90
53520;DHT22;39397;53.204;5.778;2022-11-15T09:06:19;11.20;99.90
53520;DHT22;39397;53.204;5.778;2022-11-15T09:08:45;11.30;99.90
53520;DHT22;39397;53.204;5.778;2022-11-15T09:11:11;11.30;99.90
53520;DHT22;39397;53.204;5.778;2022-11-15T09:13:37;11.30;99.90
53520;DHT22;39397;53.204;5.778;2022-11-15T09:16:04;12.30;99.90
53520;DHT22;39397;53.204;5.778;2022-11-15T09:18:30;11.20;99.90
53520;DHT22;39397;53.204;5.778;2022-11-15T09:20:59;11.20;99.90
53520;DHT22;39397;53.204;5.778;2022-11-15T09:23:26;12.60;99.90
53520;DHT22;39397;53.204;5.778;2022-11-15T09:25:52;11.30;99.90
53520;DHT22;39397;53.204;5.778;2022-11-15T09:28:18;11.40;99.90
53520;DHT22;39397;53.204;5.778;2022-11-15T09:30:44;11.50;99.90
53520;DHT22;39397;53.204;5.778;2022-11-15T09:33:11;11.40;99.90
53520;DHT22;39397;53.204;5.778;2022-11-15T09:35:37;11.50;99.90
53520;DHT22;39397;53.204;5.778;2022-11-15T09:38:03;11.50;99.90
53520;DHT22;39397;53.204;5.778;2022-11-15T09:40:35;11.60;99.90
53520;DHT22;39397;53.204;5.778;2022-11-15T09:43:04;11.60;99.90
53520;DHT22;39397;53.204;5.778;2022-11-15T09:51:34;11.50;99.90
53520;DHT22;39397;53.204;5.778;2022-11-15T09:56:35;11.30;99.90
53520;DHT22;39397;53.204;5.778;2022-11-15T09:59:13;11.40;99.90
53520;DHT22;39397;53.204;5.778;2022-11-15T10:04:09;11.20;99.90
53520;DHT22;39397;53.204;5.778;2022-11-15T10:06:38;11.30;99.90
53520;DHT22;39397;53.204;5.778;2022-11-15T10:09:16;11.60;99.90
53520;DHT22;39397;53.204;5.778;2022-11-15T10:11:44;11.20;99.90
53520;DHT22;39397;53.204;5.778;2022-11-15T10:14:19;11.70;99.90
53520;DHT22;39397;53.204;5.778;2022-11-15T10:27:29;11.60;99.90
53520;DHT22;39397;53.204;5.778;2022-11-15T10:29:55;12.60;99.90
53520;DHT22;39397;53.204;5.778;2022-11-15T10:32:21;11.90;99.90
53520;DHT22;39397;53.204;5.778;2022-11-15T10:34:48;12.00;99.90
53520;DHT22;39397;53.204;5.778;2022-11-15T10:37:15;12.20;99.90
53520;DHT22;39397;53.204;5.778;2022-11-15T10:40:05;12.10;99.90
53520;DHT22;39397;53.204;5.778;2022-11-15T10:42:31;12.30;99.90
53520;DHT22;39397;53.204;5.778;2022-11-15T10:44:57;12.30;99.90
53520;DHT22;39397;53.204;5.778;2022-11-15T10:47:30;13.50;99.90
53520;DHT22;39397;53.204;5.778;2022-11-15T10:50:38;12.30;99.90
53520;DHT22;39397;53.204;5.778;2022-11-15T10:52:46;12.30;99.90
53520;DHT22;39397;53.204;5.778;2022-11-15T10:57:38;12.40;99.90
53520;DHT22;39397;53.204;5.778;2022-11-15T11:00:37;12.40;99.90
53520;DHT22;39397;53.204;5.778;2022-11-15T11:03:29;12.40;99.90
53520;DHT22;39397;53.204;5.778;2022-11-15T11:06:11;12.50;99.90
53520;DHT22;39397;53.204;5.778;2022-11-15T11:08:37;14.70;99.90
53520;DHT22;39397;53.204;5.778;2022-11-15T11:11:06;12.60;99.90
53520;DHT22;39397;53.204;5.778;2022-11-15T11:13:41;12.60;99.90
53520;DHT22;39397;53.204;5.778;2022-11-15T11:21:10;14.10;99.90
53520;DHT22;39397;53.204;5.778;2022-11-15T11:23:42;12.80;99.90
53520;DHT22;39397;53.204;5.778;2022-11-15T11:31:56;12.90;99.90
53520;DHT22;39397;53.204;5.778;2022-11-15T11:43:12;12.80;99.90
53520;DHT22;39397;53.204;5.778;2022-11-15T11:51:23;12.80;99.90
53520;DHT22;39397;53.204;5.778;2022-11-15T11:53:56;12.80;99.90
53520;DHT22;39397;53.204;5.778;2022-11-15T11:56:32;14.10;99.90
53520;DHT22;39397;53.204;5.778;2022-11-15T11:59:20;12.90;99.90
53520;DHT22;39397;53.204;5.778;2022-11-15T12:01:46;13.10;99.90
53520;DHT22;39397;53.204;5.778;2022-11-15T12:09:48;13.10;99.90
53520;DHT22;39397;53.204;5.778;2022-11-15T12:13:00;13.10;99.90
53520;DHT22;39397;53.204;5.778;2022-11-15T12:15:38;13.10;99.90
53520;DHT22;39397;53.204;5.778;2022-11-15T12:18:07;13.10;99.90
53520;DHT22;39397;53.204;5.778;2022-11-15T12:20:36;13.00;99.90
53520;DHT22;39397;53.204;5.778;2022-11-15T12:23:32;14.10;99.90
53520;DHT22;39397;53.204;5.778;2022-11-15T12:26:02;13.00;99.90
53520;DHT22;39397;53.204;5.778;2022-11-15T12:28:41;13.00;99.90
53520;DHT22;39397;53.204;5.778;2022-11-15T12:33:56;13.10;99.90
53520;DHT22;39397;53.204;5.778;2022-11-15T12:39:08;13.10;99.90
53520;DHT22;39397;53.204;5.778;2022-11-15T12:41:36;13.10;99.90
53520;DHT22;39397;53.204;5.778;2022-11-15T12:44:03;13.10;99.90
53520;DHT22;39397;53.204;5.778;2022-11-15T13:02:35;13.20;99.90
53520;DHT22;39397;53.204;5.778;2022-11-15T13:07:59;13.90;99.90
53520;DHT22;39397;53.204;5.778;2022-11-15T13:10:29;12.90;99.90
53520;DHT22;39397;53.204;5.778;2022-11-15T13:17:51;12.70;99.90
53520;DHT22;39397;53.204;5.778;2022-11-15T13:20:29;12.70;99.90
53520;DHT22;39397;53.204;5.778;2022-11-15T13:28:03;13.20;99.90
53520;DHT22;39397;53.204;5.778;2022-11-15T13:30:35;12.60;99.90
53520;DHT22;39397;53.204;5.778;2022-11-15T13:33:08;12.50;99.90
53520;DHT22;39397;53.204;5.778;2022-11-15T13:35:38;12.50;99.90
53520;DHT22;39397;53.204;5.778;2022-11-15T13:38:05;12.50;99.90
53520;DHT22;39397;53.204;5.778;2022-11-15T13:40:36;12.70;99.90
53520;DHT22;39397;53.204;5.778;2022-11-15T13:46:22;12.40;99.90
53520;DHT22;39397;53.204;5.778;2022-11-15T13:49:09;12.40;99.90
53520;DHT22;39397;53.204;5.778;2022-11-15T13:51:47;12.30;99.90
53520;DHT22;39397;53.204;5.778;2022-11-15T13:57:09;12.90;99.90
53520;DHT22;39397;53.204;5.778;2022-11-15T14:02:19;13.30;99.90
53520;DHT22;39397;53.204;5.778;2022-11-15T14:04:53;12.90;99.90
53520;DHT22;39397;53.204;5.778;2022-11-15T14:07:22;12.20;99.90
53520;DHT22;39397;53.204;5.778;2022-11-15T14:09:48;12.20;99.90
53520;DHT22;39397;53.204;5.778;2022-11-15T14:12:30;12.30;99.90
53520;DHT22;39397;53.204;5.778;2022-11-15T14:15:39;12.00;99.90
53520;DHT22;39397;53.204;5.778;2022-11-15T14:17:46;12.00;99.90
53520;DHT22;39397;53.204;5.778;2022-11-15T14:22:54;11.90;99.90
53520;DHT22;39397;53.204;5.778;2022-11-15T14:28:11;11.80;99.90
53520;DHT22;39397;53.204;5.778;2022-11-15T14:30:42;11.80;99.90
53520;DHT22;39397;53.204;5.778;2022-11-15T14:35:56;11.70;99.90
53520;DHT22;39397;53.204;5.778;2022-11-15T14:38:24;11.90;99.90
53520;DHT22;39397;53.204;5.778;2022-11-15T14:40:49;12.20;99.90
53520;DHT22;39397;53.204;5.778;2022-11-15T14:43:19;12.30;99.90
53520;DHT22;39397;53.204;5.778;2022-11-15T14:45:45;11.50;99.90
53520;DHT22;39397;53.204;5.778;2022-11-15T14:48:11;11.90;99.90
53520;DHT22;39397;53.204;5.778;2022-11-15T14:50:37;12.10;99.90
53520;DHT22;39397;53.204;5.778;2022-11-15T14:53:03;11.90;99.90
53520;DHT22;39397;53.204;5.778;2022-11-15T14:55:35;11.60;99.90
53520;DHT22;39397;53.204;5.778;2022-11-15T14:58:06;11.20;99.90
53520;DHT22;39397;53.204;5.778;2022-11-15T15:00:34;11.70;99.90
53520;DHT22;39397;53.204;5.778;2022-11-15T15:03:00;11.80;99.90
53520;DHT22;39397;53.204;5.778;2022-11-15T15:05:38;11.10;99.90
53520;DHT22;39397;53.204;5.778;2022-11-15T15:08:04;11.20;99.90
53520;DHT22;39397;53.204;5.778;2022-11-15T15:10:36;11.00;99.90
53520;DHT22;39397;53.204;5.778;2022-11-15T15:13:03;11.00;99.90
53520;DHT22;39397;53.204;5.778;2022-11-15T15:15:36;11.80;99.90
53520;DHT22;39397;53.204;5.778;2022-11-15T15:18:03;10.90;99.90
53520;DHT22;39397;53.204;5.778;2022-11-15T15:20:31;10.80;99.90
53520;DHT22;39397;53.204;5.778;2022-11-15T15:22:57;11.60;99.90
53520;DHT22;39397;53.204;5.778;2022-11-15T15:25:32;10.70;99.90
53520;DHT22;39397;53.204;5.778;2022-11-15T15:27:58;10.60;99.90
53520;DHT22;39397;53.204;5.778;2022-11-15T15:30:29;10.60;99.90
53520;DHT22;39397;53.204;5.778;2022-11-15T15:32:55;10.60;99.90
53520;DHT22;39397;53.204;5.778;2022-11-15T15:35:21;10.50;99.90
53520;DHT22;39397;53.204;5.778;2022-11-15T15:37:48;11.30;99.90
53520;DHT22;39397;53.204;5.778;2022-11-15T15:40:22;10.40;99.90
53520;DHT22;39397;53.204;5.778;2022-11-15T15:42:49;10.60;99.90
53520;DHT22;39397;53.204;5.778;2022-11-15T15:45:16;12.00;99.90
53520;DHT22;39397;53.204;5.778;2022-11-15T15:47:42;10.40;99.90
53520;DHT22;39397;53.204;5.778;2022-11-15T15:52:46;10.30;99.90
53520;DHT22;39397;53.204;5.778;2022-11-15T15:55:12;10.20;99.90
53520;DHT22;39397;53.204;5.778;2022-11-15T15:57:38;10.40;99.90
53520;DHT22;39397;53.204;5.778;2022-11-15T16:00:05;10.90;99.90
53520;DHT22;39397;53.204;5.778;2022-11-15T16:02:30;10.10;99.90
53520;DHT22;39397;53.204;5.778;2022-11-15T16:04:56;10.10;99.90
53520;DHT22;39397;53.204;5.778;2022-11-15T16:07:23;11.40;99.90
53520;DHT22;39397;53.204;5.778;2022-11-15T16:09:53;10.00;99.90
53520;DHT22;39397;53.204;5.778;2022-11-15T16:12:27;12.00;99.90
53520;DHT22;39397;53.204;5.778;2022-11-15T16:14:52;10.00;99.90
53520;DHT22;39397;53.204;5.778;2022-11-15T16:17:20;10.00;99.90
53520;DHT22;39397;53.204;5.778;2022-11-15T16:19:46;10.80;99.90
53520;DHT22;39397;53.204;5.778;2022-11-15T16:22:12;10.20;99.90
53520;DHT22;39397;53.204;5.778;2022-11-15T16:24:38;11.40;99.90
53520;DHT22;39397;53.204;5.778;2022-11-15T16:27:04;11.20;99.90
53520;DHT22;39397;53.204;5.778;2022-11-15T16:29:29;11.20;99.90
53520;DHT22;39397;53.204;5.778;2022-11-15T16:31:55;11.30;99.90
53520;DHT22;39397;53.204;5.778;2022-11-15T16:34:21;11.00;99.90
53520;DHT22;39397;53.204;5.778;2022-11-15T16:36:47;10.40;99.90
53520;DHT22;39397;53.204;5.778;2022-11-15T16:39:13;11.40;99.90
53520;DHT22;39397;53.204;5.778;2022-11-15T16:41:42;10.70;99.90
53520;DHT22;39397;53.204;5.778;2022-11-15T16:44:12;10.60;99.90
53520;DHT22;39397;53.204;5.778;2022-11-15T16:46:41;12.70;99.90
53520;DHT22;39397;53.204;5.778;2022-11-15T16:49:14;12.20;99.90
53520;DHT22;39397;53.204;5.778;2022-11-15T16:51:40;11.60;99.90
53520;DHT22;39397;53.204;5.778;2022-11-15T16:54:07;11.60;99.90
53520;DHT22;39397;53.204;5.778;2022-11-15T16:56:33;10.80;99.90
53520;DHT22;39397;53.204;5.778;2022-11-15T16:59:00;10.80;99.90
53520;DHT22;39397;53.204;5.778;2022-11-15T17:01:35;11.30;99.90
53520;DHT22;39397;53.204;5.778;2022-11-15T17:04:02;10.90;99.90
53520;DHT22;39397;53.204;5.778;2022-11-15T17:06:41;11.60;99.90
53520;DHT22;39397;53.204;5.778;2022-11-15T17:09:13;11.10;99.90
53520;DHT22;39397;53.204;5.778;2022-11-15T17:11:40;11.10;99.90
53520;DHT22;39397;53.204;5.778;2022-11-15T17:14:06;11.00;99.90
53520;DHT22;39397;53.204;5.778;2022-11-15T17:16:32;11.00;99.90
53520;DHT22;39397;53.204;5.778;2022-11-15T17:18:59;11.40;99.90
53520;DHT22;39397;53.204;5.778;2022-11-15T17:21:26;11.10;99.90
53520;DHT22;39397;53.204;5.778;2022-11-15T17:23:53;11.10;99.90
53520;DHT22;39397;53.204;5.778;2022-11-15T17:26:19;11.20;99.90
53520;DHT22;39397;53.204;5.778;2022-11-15T17:28:45;11.20;99.90
53520;DHT22;39397;53.204;5.778;2022-11-15T17:31:13;11.50;99.90
53520;DHT22;39397;53.204;5.778;2022-11-15T17:33:39;11.10;99.90
53520;DHT22;39397;53.204;5.778;2022-11-15T17:36:07;12.30;99.90
53520;DHT22;39397;53.204;5.778;2022-11-15T17:38:34;11.10;99.90
53520;DHT22;39397;53.204;5.778;2022-11-15T17:41:12;11.10;99.90
53520;DHT22;39397;53.204;5.778;2022-11-15T17:43:39;11.30;99.90
53520;DHT22;39397;53.204;5.778;2022-11-15T17:46:07;11.20;99.90
53520;DHT22;39397;53.204;5.778;2022-11-15T17:48:33;11.20;99.90
53520;DHT22;39397;53.204;5.778;2022-11-15T17:51:01;11.30;99.90
53520;DHT22;39397;53.204;5.778;2022-11-15T17:53:31;11.30;99.90
53520;DHT22;39397;53.204;5.778;2022-11-15T17:56:03;11.30;99.90
53520;DHT22;39397;53.204;5.778;2022-11-15T17:58:31;11.30;99.90
53520;DHT22;39397;53.204;5.778;2022-11-15T18:03:35;11.30;99.90